KDFW/DFW METAR and TAF weather

Enter ICAO airport designator
Station Type Date Time Source
KDFW METAR 2019/04/19 07:53 UTC NOAA

KDFW 190753Z 31013KT 10SM FEW250 12/07 A2995 RMK AO2 SLP137 T01220067


Station Type Date Time Source
KDFW Decoded METAR 2019/04/19 07:53 UTC NOAA

DALLAS/FT. WORTH INTERNATIONAL AIRPORT , TX, United States (KDFW) 32-54N 097-02W 174M
Apr 19, 2019 - 03:53 AM EDT / 2019.04.19 0753 UTC
Wind: from the NW (310 degrees) at 15 MPH (13 KT):0
Visibility: 10 mile(s):0
Sky conditions: mostly clear
Temperature: 54.0 F (12.2 C)
Dew Point: 44.1 F (6.7 C)
Relative Humidity: 69%
Pressure (altimeter): 29.95 in. Hg (1014 hPa)
ob: KDFW 190753Z 31013KT 10SM FEW250 12/07 A2995 RMK AO2 SLP137 T01220067
cycle: 8

Station Type Date Time Source
KDFW TAF 2019/04/19 06:22 UTC NOAA

TAF KDFW 190520Z 1906/2012 32013KT P6SM FEW080 SCT250
FM191400 35018G28KT P6SM SKC
FM200100 35010KT P6SM SKC
FM200900 28007KT P6SM SKC

Example: see airport list